Poloa, Kingdom of Norway

4:43 PM WSDT on October 23, 2014 (GMT +1400)
MesoWest | Change Station
CLOSE
Current Station
Personal Weather Station
Location: Cape Taputapu,
Elevation: 399 ft
Nearby Weather Stations

Elev 399 ft 14.32 °S, 170.84 °W | Updated 122 days ago

Partly Cloudy
Partly Cloudy
84 °F
Feels Like 90 °F
N
13
Wind Variable Wind from ESE
Gusts mph

Today
High -- | Low -- °F
--% Chance of Precip.
Yesterday
High -- | Low -- °F
Precip. -- in
6:52 AM 7:23 PM
Waning Crescent, 1% visible
Pressure 29.86 in
Visibility 12.0 miles
Clouds Few 2300 ft
Scattered Clouds 5000 ft
Mostly Cloudy 10000 ft
Heat Index 90 °F
Dew Point 73 °F
Humidity 70%
Rainfall -999.00 in
Snow Depth Not available.
UV 4 out of 12
Pollen Not available.
Air Quality Not available.
Flu Activity Not available.
METAR NSTU 230153Z 11010KT 12SM FEW023 SCT050 BKN100 28/23 A2985 RMK SLP110 T02840232

More Conditions Fewer Conditions

Pressure 29.86 in
Visibility 12.0 miles
Clouds Few 2300 ft
Scattered Clouds 5000 ft
Mostly Cloudy 10000 ft
Heat Index 90 °F
Dew Point 73 °F
Humidity 70%
Rainfall -999.00 in
Snow Depth Not available.
UV 4 out of 12
Pollen Not available.
Air Quality Not available.
Flu Activity Not available.
METAR NSTU 230153Z 11010KT 12SM FEW023 SCT050 BKN100 28/23 A2985 RMK SLP110 T02840232

More Conditions Fewer Conditions

10-Day Weather Forecast

Almanac

Astronomy

Oct. 23, 2014 Rise Set
Actual Time 6:52 AM WSDT 7:23 PM WSDT
Civil Twilight 6:30 AM WSDT 7:45 PM WSDT
Nautical Twilight 6:04 AM WSDT 8:10 PM WSDT
Astronomical Twilight 5:38 AM WSDT 8:36 PM WSDT
Moon 6:07 AM WSDT 6:44 PM WSDT
Length of Visible Light 13h 14m
Length of Day
12h 31m
Tomorrow will be 0m 45s longer.
Waning Crescent, 1% of the Moon is Illuminated
Oct 22
Waning Crescent
Oct 23
New
Oct 30
First Quarter
Nov 6
Full
Nov 14
Last Quarter

Yesterday's Extremes

Country Highs Country Lows

Community

WunderPhotos

Upload Photos

1,764,115 photos uploaded!

Nearby

Snow Depth

Not available.

Earthquake Activity

City Distance Mag. Time & Date
No recent earthquake activity has been reported nearby.
Minimum magnitude displayed is 2.5.

Coastal Water Temperatures

Place Temperature
No Stations Reporting

Nearby Weather Stations